createdAt,value
2019-02-23T00:01:35.264Z,99.90
2019-02-23T00:04:04.777Z,99.90
2019-02-23T00:06:34.893Z,99.90
2019-02-23T00:09:05.875Z,99.90
2019-02-23T00:11:35.322Z,99.90
2019-02-23T00:14:04.785Z,99.90
2019-02-23T00:16:34.241Z,99.90
2019-02-23T00:19:03.665Z,99.90
2019-02-23T00:21:33.149Z,99.90
2019-02-23T00:24:02.584Z,99.90
2019-02-23T00:26:32.052Z,99.90
2019-02-23T00:29:01.526Z,99.90
2019-02-23T00:31:30.975Z,99.90
2019-02-23T00:34:00.400Z,99.90
2019-02-23T00:36:29.858Z,99.90
2019-02-23T00:38:59.298Z,99.90
2019-02-23T00:41:29.173Z,99.90
2019-02-23T00:43:58.622Z,99.90
2019-02-23T00:46:28.383Z,99.90
2019-02-23T00:48:57.835Z,99.90
2019-02-23T00:51:27.462Z,99.90
2019-02-23T00:53:56.910Z,99.90
2019-02-23T00:56:26.353Z,99.90
2019-02-23T00:58:56.212Z,99.90
2019-02-23T01:01:25.681Z,99.90
2019-02-23T01:03:55.130Z,99.90
2019-02-23T01:06:24.981Z,99.90
2019-02-23T01:08:54.421Z,99.90
2019-02-23T01:11:23.955Z,99.90
2019-02-23T01:13:53.435Z,99.90
2019-02-23T01:16:22.857Z,99.90
2019-02-23T01:18:52.324Z,99.90
2019-02-23T01:21:21.783Z,99.90
2019-02-23T01:23:51.231Z,99.90
2019-02-23T01:26:20.674Z,99.90
2019-02-23T01:28:50.140Z,99.90
2019-02-23T01:31:19.609Z,99.90
2019-02-23T01:33:49.084Z,99.90
2019-02-23T01:36:18.527Z,99.90
2019-02-23T01:38:47.999Z,99.90
2019-02-23T01:41:17.433Z,99.90
2019-02-23T01:43:46.935Z,99.90
2019-02-23T01:46:16.387Z,99.90
2019-02-23T01:48:45.888Z,99.90
2019-02-23T01:51:15.412Z,99.90
2019-02-23T01:53:44.902Z,99.90
2019-02-23T01:56:14.329Z,99.90
2019-02-23T01:58:44.151Z,99.90
2019-02-23T02:01:13.610Z,99.90
2019-02-23T02:03:43.370Z,99.90
2019-02-23T02:06:13.161Z,99.90
2019-02-23T02:08:42.925Z,99.90
2019-02-23T02:11:12.670Z,99.90
2019-02-23T02:13:42.397Z,99.90
2019-02-23T02:16:11.885Z,99.90
2019-02-23T02:18:41.635Z,99.90
2019-02-23T02:21:11.090Z,99.90
2019-02-23T02:23:40.535Z,99.90
2019-02-23T02:26:10.015Z,99.90
2019-02-23T02:28:39.486Z,99.90
2019-02-23T02:31:09.128Z,99.90
2019-02-23T02:34:04.870Z,99.90
2019-02-23T02:36:34.369Z,99.90
2019-02-23T02:39:05.025Z,99.90
2019-02-23T02:41:34.496Z,99.90
2019-02-23T02:44:03.972Z,99.90
2019-02-23T02:46:33.419Z,99.90
2019-02-23T02:49:03.337Z,99.90
2019-02-23T02:51:32.780Z,99.90
2019-02-23T02:54:02.288Z,99.90
2019-02-23T02:56:32.051Z,99.90
2019-02-23T02:59:01.972Z,99.90
2019-02-23T03:01:31.413Z,99.90
2019-02-23T03:04:01.114Z,99.90
2019-02-23T03:06:30.543Z,99.90
2019-02-23T03:09:00.047Z,99.90
2019-02-23T03:11:29.479Z,99.90
2019-02-23T03:13:58.949Z,99.90
2019-02-23T03:16:28.385Z,99.90
2019-02-23T03:18:57.878Z,99.90
2019-02-23T03:21:27.326Z,99.90
2019-02-23T03:23:56.783Z,99.90
2019-02-23T03:26:26.345Z,99.90
2019-02-23T03:28:56.107Z,99.90
2019-02-23T03:31:25.555Z,99.90
2019-02-23T03:33:55.006Z,99.90
2019-02-23T03:36:24.647Z,99.90
2019-02-23T03:38:54.128Z,99.90
2019-02-23T03:41:23.597Z,99.90
2019-02-23T03:43:53.402Z,99.90
2019-02-23T03:46:22.854Z,99.90
2019-02-23T03:48:52.311Z,99.90
2019-02-23T03:51:21.886Z,99.90
2019-02-23T03:53:51.390Z,99.90
2019-02-23T03:56:21.143Z,99.90
2019-02-23T03:58:50.955Z,99.90
2019-02-23T04:01:20.421Z,99.90
2019-02-23T04:03:49.868Z,99.90
2019-02-23T04:06:19.314Z,99.90
2019-02-23T04:08:49.708Z,99.90
2019-02-23T04:11:19.458Z,99.90
2019-02-23T04:13:48.899Z,99.90
2019-02-23T04:16:18.365Z,99.90
2019-02-23T04:18:47.820Z,99.90
2019-02-23T04:21:17.264Z,99.90
2019-02-23T04:23:46.741Z,99.90
2019-02-23T04:26:16.179Z,99.90
2019-02-23T04:28:45.967Z,99.90
2019-02-23T04:31:15.424Z,99.90
2019-02-23T04:33:44.904Z,99.90
2019-02-23T04:36:14.339Z,99.90
2019-02-23T04:38:43.779Z,99.90
2019-02-23T04:41:13.213Z,99.90
2019-02-23T04:43:44.186Z,99.90
2019-02-23T04:46:13.714Z,99.90
2019-02-23T04:48:43.159Z,99.90
2019-02-23T04:51:14.784Z,99.90
2019-02-23T04:53:44.840Z,99.90
2019-02-23T04:56:14.654Z,99.90
2019-02-23T04:58:44.115Z,99.90
2019-02-23T05:01:13.597Z,99.90
2019-02-23T05:03:43.015Z,99.90
2019-02-23T05:06:12.509Z,99.90
2019-02-23T05:08:41.962Z,99.90
2019-02-23T05:11:11.430Z,99.90
2019-02-23T05:13:41.182Z,99.90
2019-02-23T05:16:10.637Z,99.90
2019-02-23T05:18:40.090Z,99.90
2019-02-23T05:21:09.537Z,99.90
2019-02-23T05:23:39.304Z,99.90
2019-02-23T05:26:08.748Z,99.90
2019-02-23T05:28:38.216Z,99.90
2019-02-23T05:31:08.156Z,99.90
2019-02-23T05:33:37.692Z,99.90
2019-02-23T05:36:07.553Z,99.90
2019-02-23T05:38:37.005Z,99.90
2019-02-23T05:41:06.458Z,99.90
2019-02-23T05:43:35.920Z,99.90
2019-02-23T05:46:05.375Z,99.90
2019-02-23T05:48:35.176Z,99.90
2019-02-23T05:51:04.604Z,99.90
2019-02-23T05:53:34.089Z,99.90
2019-02-23T05:56:03.591Z,99.90
2019-02-23T05:58:33.403Z,99.90
2019-02-23T06:01:02.833Z,99.90
2019-02-23T06:03:32.289Z,99.90
2019-02-23T06:06:01.854Z,99.90
2019-02-23T06:08:31.339Z,99.90
2019-02-23T06:11:00.779Z,99.90
2019-02-23T06:13:30.534Z,99.90
2019-02-23T06:16:00.260Z,99.90
2019-02-23T06:18:29.699Z,99.90
2019-02-23T06:20:59.152Z,99.90
2019-02-23T06:23:28.587Z,99.90
2019-02-23T06:25:58.068Z,99.90
2019-02-23T06:28:27.529Z,99.90
2019-02-23T06:30:57.280Z,99.90
2019-02-23T06:33:26.720Z,99.90
2019-02-23T06:35:56.220Z,99.90
2019-02-23T06:38:25.686Z,99.90
2019-02-23T06:40:55.138Z,99.90
2019-02-23T06:43:24.562Z,99.90
2019-02-23T06:45:54.354Z,99.90
2019-02-23T06:48:23.815Z,99.90
2019-02-23T06:50:53.253Z,99.90
2019-02-23T06:53:23.029Z,99.90
2019-02-23T06:55:52.550Z,99.90
2019-02-23T06:58:22.006Z,99.90
2019-02-23T07:00:51.728Z,99.90
2019-02-23T07:03:21.191Z,99.90
2019-02-23T07:05:50.979Z,99.90
2019-02-23T07:08:20.424Z,99.90
2019-02-23T07:10:50.167Z,99.90
2019-02-23T07:13:19.997Z,99.90
2019-02-23T07:15:49.457Z,99.90
2019-02-23T07:18:19.623Z,99.90
2019-02-23T07:20:49.387Z,99.90
2019-02-23T07:23:18.844Z,99.90
2019-02-23T07:25:48.291Z,99.90
2019-02-23T07:28:17.747Z,99.90
2019-02-23T07:30:47.316Z,99.90
2019-02-23T07:33:23.703Z,99.90
2019-02-23T07:35:47.902Z,99.90
2019-02-23T07:38:17.393Z,99.90
2019-02-23T07:40:46.832Z,99.90
2019-02-23T07:43:16.322Z,99.90
2019-02-23T07:45:45.765Z,99.90
2019-02-23T07:48:15.562Z,99.90
2019-02-23T07:50:45.017Z,99.90
2019-02-23T07:53:14.535Z,99.90
2019-02-23T07:55:44.013Z,99.90
2019-02-23T07:58:13.864Z,99.90
2019-02-23T08:00:44.130Z,99.50
2019-02-23T08:03:13.890Z,99.90
2019-02-23T08:05:43.865Z,99.00
2019-02-23T08:08:13.720Z,99.70
2019-02-23T08:10:43.560Z,96.60
2019-02-23T08:13:13.160Z,97.80
2019-02-23T08:15:42.623Z,93.10
2019-02-23T08:18:12.061Z,96.30
2019-02-23T08:20:41.648Z,97.70
2019-02-23T08:23:11.658Z,95.50
2019-02-23T08:25:41.138Z,93.80
2019-02-23T08:28:10.719Z,97.50
2019-02-23T08:30:40.256Z,94.80
2019-02-23T08:33:09.759Z,95.70
2019-02-23T08:35:39.570Z,92.20
2019-02-23T08:38:09.004Z,90.30
2019-02-23T08:40:38.479Z,83.60
2019-02-23T08:43:08.209Z,89.70
2019-02-23T08:45:37.697Z,88.90
2019-02-23T08:48:07.140Z,85.40
2019-02-23T08:50:36.623Z,86.30
2019-02-23T08:53:06.480Z,88.10
2019-02-23T08:55:35.922Z,83.20
2019-02-23T08:58:05.762Z,81.30
2019-02-23T09:00:35.243Z,74.40
2019-02-23T09:03:04.835Z,77.80
2019-02-23T09:05:34.350Z,83.30
2019-02-23T09:08:03.781Z,76.30
2019-02-23T09:10:33.238Z,82.00
2019-02-23T09:13:02.703Z,69.80
2019-02-23T09:15:32.427Z,64.40
2019-02-23T09:18:01.924Z,57.00
2019-02-23T09:20:31.421Z,57.50
2019-02-23T09:23:00.991Z,60.30
2019-02-23T09:25:30.447Z,58.70
2019-02-23T09:27:59.954Z,58.40
2019-02-23T09:30:29.397Z,52.70
2019-02-23T09:32:58.858Z,46.60
2019-02-23T09:35:28.299Z,46.80
2019-02-23T09:37:57.745Z,47.70
2019-02-23T09:40:27.709Z,48.10
2019-02-23T09:42:57.156Z,48.70
2019-02-23T09:45:26.595Z,49.80
2019-02-23T09:47:56.054Z,54.50
2019-02-23T09:50:26.165Z,57.70
2019-02-23T09:53:10.703Z,56.70
2019-02-23T09:55:32.250Z,55.30
2019-02-23T09:58:01.709Z,54.10
2019-02-23T10:00:31.223Z,51.40
2019-02-23T10:03:00.703Z,50.10
2019-02-23T10:05:30.292Z,49.90
2019-02-23T10:07:59.775Z,47.30
2019-02-23T10:10:29.228Z,51.50
2019-02-23T10:12:58.706Z,54.20
2019-02-23T10:15:28.196Z,50.90
2019-02-23T10:17:58.556Z,48.80
2019-02-23T10:20:28.318Z,47.70
2019-02-23T10:22:57.791Z,46.60
2019-02-23T10:25:27.984Z,45.30
2019-02-23T10:27:59.207Z,44.00
2019-02-23T10:30:28.850Z,42.70
2019-02-23T10:32:58.347Z,40.60
2019-02-23T10:35:27.787Z,38.40
2019-02-23T10:37:57.277Z,39.50
2019-02-23T10:40:26.748Z,39.60
2019-02-23T10:42:56.597Z,38.10
2019-02-23T10:45:28.363Z,38.30
2019-02-23T10:51:35.911Z,36.90
2019-02-23T10:54:09.957Z,35.90
2019-02-23T10:56:43.157Z,37.30
2019-02-23T10:59:14.972Z,39.90
2019-02-23T11:01:45.752Z,42.00
2019-02-23T11:08:20.087Z,38.60
2019-02-23T11:11:04.945Z,37.60
2019-02-23T11:13:35.512Z,40.90
2019-02-23T11:16:05.497Z,40.00
2019-02-23T11:18:35.948Z,40.00
2019-02-23T11:21:05.578Z,43.10
2019-02-23T11:23:43.946Z,41.40
2019-02-23T11:26:07.010Z,39.40
2019-02-23T11:28:37.297Z,39.30
2019-02-23T11:31:07.814Z,37.90
2019-02-23T11:33:37.501Z,38.20
2019-02-23T11:36:07.045Z,39.00
2019-02-23T11:38:36.948Z,36.90
2019-02-23T11:41:06.392Z,38.20
2019-02-23T11:43:41.175Z,34.80
2019-02-23T11:46:10.683Z,32.90
2019-02-23T11:48:40.433Z,34.10
2019-02-23T11:51:10.170Z,34.40
2019-02-23T11:53:40.259Z,33.70
2019-02-23T11:56:09.734Z,34.10
2019-02-23T11:58:39.511Z,32.90
2019-02-23T12:01:09.005Z,33.20
2019-02-23T12:03:38.431Z,32.90
2019-02-23T12:06:07.944Z,33.20
2019-02-23T12:08:37.755Z,34.30
2019-02-23T12:11:07.216Z,33.30
2019-02-23T12:13:36.678Z,34.10
2019-02-23T12:16:06.443Z,32.10
2019-02-23T12:18:36.064Z,32.40
2019-02-23T12:21:05.804Z,31.70
2019-02-23T12:23:35.232Z,31.50
2019-02-23T12:26:04.750Z,28.00
2019-02-23T12:28:34.219Z,27.80
2019-02-23T12:31:03.649Z,28.50
2019-02-23T12:33:33.101Z,29.40
2019-02-23T12:36:02.541Z,31.90
2019-02-23T12:38:31.952Z,30.00
2019-02-23T12:41:01.387Z,28.60
2019-02-23T12:43:30.970Z,27.90
2019-02-23T12:46:00.419Z,30.00
2019-02-23T12:48:31.920Z,30.10
2019-02-23T12:51:01.352Z,29.90
2019-02-23T12:53:31.234Z,31.10
2019-02-23T12:56:00.675Z,30.60
2019-02-23T12:58:30.160Z,31.50
2019-02-23T13:00:59.630Z,32.00
2019-02-23T13:03:29.090Z,32.20
2019-02-23T13:05:58.505Z,33.10
2019-02-23T13:08:51.560Z,34.00
2019-02-23T13:11:21.227Z,33.80
2019-02-23T13:14:33.406Z,33.40
2019-02-23T13:17:33.130Z,33.80
2019-02-23T13:20:29.223Z,34.50
2019-02-23T13:23:51.903Z,32.40
2019-02-23T13:27:10.375Z,32.60
2019-02-23T13:29:52.467Z,30.00
2019-02-23T13:32:54.283Z,30.00
2019-02-23T13:36:06.275Z,30.50
2019-02-23T13:39:28.585Z,29.60
2019-02-23T13:42:30.896Z,29.70
2019-02-23T13:45:32.274Z,29.20
2019-02-23T13:48:45.562Z,30.10
2019-02-23T13:51:46.715Z,29.10
2019-02-23T13:54:38.944Z,30.00
2019-02-23T13:57:32.255Z,29.40
2019-02-23T14:00:51.917Z,29.00
2019-02-23T14:03:55.445Z,32.90
2019-02-23T14:07:04.866Z,29.90
2019-02-23T14:10:13.612Z,29.70
2019-02-23T14:13:04.333Z,29.60
2019-02-23T14:16:30.334Z,27.80
2019-02-23T14:19:38.756Z,28.40
2019-02-23T14:22:54.346Z,30.00
2019-02-23T14:26:01.460Z,29.70
2019-02-23T14:29:19.019Z,28.50
2019-02-23T14:32:16.627Z,27.70
2019-02-23T14:35:15.988Z,27.40
2019-02-23T14:38:18.465Z,29.20
2019-02-23T14:41:25.340Z,29.60
2019-02-23T14:44:33.159Z,28.80
2019-02-23T14:47:51.706Z,28.20
2019-02-23T14:51:07.221Z,28.10
2019-02-23T14:54:26.668Z,28.70
2019-02-23T14:57:52.110Z,28.60
2019-02-23T15:01:03.382Z,28.80
2019-02-23T15:04:04.684Z,28.80
2019-02-23T15:07:18.577Z,29.30
2019-02-23T15:09:56.627Z,30.50
2019-02-23T15:12:44.585Z,28.90
2019-02-23T15:15:28.764Z,29.60
2019-02-23T15:18:41.136Z,29.40
2019-02-23T15:21:47.079Z,31.20
2019-02-23T15:24:36.711Z,32.10
2019-02-23T15:27:35.157Z,30.80
2019-02-23T15:30:55.184Z,30.90
2019-02-23T15:34:00.360Z,32.20
2019-02-23T15:37:14.057Z,32.40
2019-02-23T15:40:25.478Z,35.00
2019-02-23T15:43:38.954Z,36.30
2019-02-23T15:46:38.907Z,36.20
2019-02-23T15:49:30.636Z,35.00
2019-02-23T15:52:01.769Z,35.10
2019-02-23T15:54:31.370Z,34.60
2019-02-23T15:57:00.792Z,35.30
2019-02-23T15:59:33.111Z,36.10
2019-02-23T16:02:03.439Z,37.40
2019-02-23T16:04:32.961Z,38.40
2019-02-23T16:07:02.412Z,40.50
2019-02-23T16:09:32.107Z,42.00
2019-02-23T16:12:01.687Z,44.10
2019-02-23T16:14:31.400Z,45.90
2019-02-23T16:17:01.010Z,45.80
2019-02-23T16:19:30.860Z,46.10
2019-02-23T16:22:00.297Z,46.60
2019-02-23T16:24:29.905Z,46.60
2019-02-23T16:26:59.389Z,47.70
2019-02-23T16:29:28.819Z,47.40
2019-02-23T16:31:58.268Z,48.30
2019-02-23T16:34:27.738Z,46.00
2019-02-23T16:36:57.167Z,46.90
2019-02-23T16:39:27.304Z,48.20
2019-02-23T16:41:57.134Z,48.70
2019-02-23T16:44:27.314Z,49.40
2019-02-23T16:46:56.883Z,50.80
2019-02-23T16:49:26.419Z,52.90
2019-02-23T16:51:56.388Z,52.80
2019-02-23T16:54:25.983Z,53.00
2019-02-23T16:56:55.540Z,53.90
2019-02-23T16:59:24.985Z,54.90
2019-02-23T17:01:54.549Z,55.30
2019-02-23T17:04:24.035Z,56.50
2019-02-23T17:06:53.638Z,58.40
2019-02-23T17:09:25.412Z,60.50
2019-02-23T17:11:54.137Z,61.30
2019-02-23T17:14:23.596Z,62.30
2019-02-23T17:16:53.644Z,64.20
2019-02-23T17:19:24.825Z,65.30
2019-02-23T17:21:54.335Z,67.30
2019-02-23T17:24:23.926Z,69.50
2019-02-23T17:26:53.592Z,69.90
2019-02-23T17:29:23.076Z,70.60
2019-02-23T17:31:53.671Z,70.70
2019-02-23T17:34:23.066Z,71.80
2019-02-23T17:36:52.793Z,73.40
2019-02-23T17:39:22.508Z,75.10
2019-02-23T17:41:51.934Z,76.00
2019-02-23T17:44:21.687Z,78.00
2019-02-23T17:46:53.681Z,79.70
2019-02-23T17:49:23.411Z,81.40
2019-02-23T17:51:52.865Z,83.30
2019-02-23T17:54:22.328Z,87.50
2019-02-23T17:56:52.264Z,88.30
2019-02-23T17:59:22.003Z,88.00
2019-02-23T18:01:52.130Z,88.20
2019-02-23T18:04:21.598Z,90.00
2019-02-23T18:06:51.507Z,90.80
2019-02-23T18:09:21.134Z,90.70
2019-02-23T18:11:50.826Z,90.80
2019-02-23T18:14:20.269Z,91.10
2019-02-23T18:16:50.335Z,91.10
2019-02-23T18:19:20.167Z,90.70
2019-02-23T18:21:49.740Z,90.80
2019-02-23T18:24:19.539Z,91.30
2019-02-23T18:26:49.085Z,93.20
2019-02-23T18:29:18.607Z,94.50
2019-02-23T18:31:48.186Z,95.80
2019-02-23T18:34:17.644Z,97.70
2019-02-23T18:36:47.110Z,99.30
2019-02-23T18:39:16.622Z,99.90
2019-02-23T18:41:46.466Z,99.90
2019-02-23T18:44:18.309Z,99.90
2019-02-23T18:46:47.766Z,99.90
2019-02-23T18:49:17.229Z,99.90
2019-02-23T18:51:46.960Z,99.90
2019-02-23T18:54:16.575Z,99.90
2019-02-23T18:56:46.345Z,99.90
2019-02-23T18:59:16.277Z,99.90
2019-02-23T19:01:45.835Z,99.90
2019-02-23T19:04:15.906Z,99.90
2019-02-23T19:06:45.615Z,99.90
2019-02-23T19:09:15.025Z,99.90
2019-02-23T19:11:44.627Z,99.90
2019-02-23T19:14:15.259Z,99.90
2019-02-23T19:16:44.914Z,99.90
2019-02-23T19:19:14.383Z,99.90
2019-02-23T19:21:43.836Z,99.90
2019-02-23T19:24:14.359Z,99.90
2019-02-23T19:26:44.024Z,99.90
2019-02-23T19:29:14.121Z,99.90
2019-02-23T19:31:43.919Z,99.90
2019-02-23T19:34:13.807Z,99.90
2019-02-23T19:36:43.545Z,99.90
2019-02-23T19:39:13.090Z,99.90
2019-02-23T19:41:43.019Z,99.90
2019-02-23T19:44:12.497Z,99.90
2019-02-23T19:46:47.412Z,99.90
2019-02-23T19:49:16.887Z,99.90
2019-02-23T19:51:46.705Z,99.90
2019-02-23T19:54:16.633Z,99.90
2019-02-23T19:56:47.163Z,99.90
2019-02-23T19:59:17.522Z,99.90
2019-02-23T20:01:50.677Z,99.90
2019-02-23T20:04:20.146Z,99.90
2019-02-23T20:06:49.845Z,99.90
2019-02-23T20:09:20.474Z,99.90
2019-02-23T20:11:50.479Z,99.90
2019-02-23T20:14:20.864Z,99.90
2019-02-23T20:16:50.437Z,99.90
2019-02-23T20:19:19.987Z,99.90
2019-02-23T20:21:49.610Z,99.90
2019-02-23T20:24:19.123Z,99.90
2019-02-23T20:26:55.356Z,99.90
2019-02-23T20:29:20.127Z,99.90
2019-02-23T20:31:49.664Z,99.90
2019-02-23T20:34:19.194Z,99.90
2019-02-23T20:36:48.733Z,99.90
2019-02-23T20:39:19.230Z,99.90
2019-02-23T20:41:49.180Z,99.90
2019-02-23T20:44:18.697Z,99.90
2019-02-23T20:46:48.296Z,99.90
2019-02-23T20:49:18.084Z,99.90
2019-02-23T20:51:47.991Z,99.90
2019-02-23T20:54:17.662Z,99.90
2019-02-23T20:56:47.121Z,99.90
2019-02-23T20:59:17.422Z,99.90
2019-02-23T21:01:47.000Z,99.90
2019-02-23T21:04:16.626Z,99.90
2019-02-23T21:06:46.188Z,99.90
2019-02-23T21:09:15.684Z,99.90
2019-02-23T21:11:45.437Z,99.90
2019-02-23T21:14:14.967Z,99.90
2019-02-23T21:16:44.597Z,99.90
2019-02-23T21:19:14.004Z,99.90
2019-02-23T21:21:43.746Z,99.90
2019-02-23T21:24:15.032Z,99.90
2019-02-23T21:26:45.004Z,99.90
2019-02-23T21:29:14.798Z,99.90
2019-02-23T21:31:44.824Z,99.90
2019-02-23T21:34:14.440Z,99.90
2019-02-23T21:36:44.273Z,99.90
2019-02-23T21:39:13.714Z,99.90
2019-02-23T21:41:45.033Z,99.90
2019-02-23T21:44:14.764Z,99.90
2019-02-23T21:46:44.552Z,99.90
2019-02-23T21:49:14.029Z,99.90
2019-02-23T21:51:43.459Z,99.90
2019-02-23T21:54:13.623Z,99.90
2019-02-23T21:56:43.080Z,99.90
2019-02-23T21:59:13.015Z,99.90
2019-02-23T22:01:42.465Z,99.90
2019-02-23T22:04:11.930Z,99.90
2019-02-23T22:06:41.365Z,99.90
2019-02-23T22:09:11.576Z,99.90
2019-02-23T22:11:41.030Z,99.90
2019-02-23T22:14:10.985Z,99.90
2019-02-23T22:16:40.691Z,99.90
2019-02-23T22:19:10.181Z,99.80
2019-02-23T22:21:40.014Z,99.90
2019-02-23T22:24:09.448Z,99.90
2019-02-23T22:26:39.242Z,99.90
2019-02-23T22:29:08.688Z,99.90
2019-02-23T22:31:38.133Z,99.90
2019-02-23T22:34:07.614Z,99.90
2019-02-23T22:36:37.098Z,99.90
2019-02-23T22:39:07.791Z,99.90
2019-02-23T22:41:37.243Z,99.90
2019-02-23T22:44:06.696Z,99.90
2019-02-23T22:46:36.441Z,99.90
2019-02-23T22:49:05.899Z,99.90
2019-02-23T22:51:35.543Z,99.90
2019-02-23T22:54:05.381Z,99.90
2019-02-23T22:56:34.789Z,99.90
2019-02-23T22:59:04.600Z,99.90
2019-02-23T23:01:34.051Z,99.90
2019-02-23T23:04:03.643Z,99.90
2019-02-23T23:06:33.088Z,99.90
2019-02-23T23:09:02.669Z,99.90
2019-02-23T23:11:32.163Z,99.90
2019-02-23T23:14:01.958Z,99.90
2019-02-23T23:16:31.381Z,99.90
2019-02-23T23:19:01.290Z,99.90
2019-02-23T23:21:30.749Z,99.90
2019-02-23T23:24:00.188Z,99.90
2019-02-23T23:26:31.013Z,99.90
2019-02-23T23:29:00.454Z,99.90
2019-02-23T23:31:29.894Z,99.90
2019-02-23T23:33:59.382Z,99.90
2019-02-23T23:36:28.856Z,99.90
2019-02-23T23:38:58.574Z,92.10
2019-02-23T23:41:47.435Z,90.10
2019-02-23T23:44:16.857Z,85.00
2019-02-23T23:46:46.322Z,84.60
2019-02-23T23:49:15.728Z,81.40
2019-02-23T23:51:45.161Z,83.40
2019-02-23T23:54:14.575Z,80.40
2019-02-23T23:56:44.037Z,91.00
2019-02-23T23:59:13.448Z,90.00
